createdAt,value
2022-11-25T00:01:13.621Z,4.10
2022-11-25T00:03:42.183Z,3.47
2022-11-25T00:06:16.756Z,3.43
2022-11-25T00:08:44.788Z,3.20
2022-11-25T00:11:13.081Z,3.50
2022-11-25T00:13:40.791Z,3.53
2022-11-25T00:16:10.540Z,3.27
2022-11-25T00:18:38.148Z,2.73
2022-11-25T00:21:13.717Z,3.47
2022-11-25T00:23:41.077Z,3.07
2022-11-25T00:26:13.797Z,3.00
2022-11-25T00:28:42.146Z,3.43
2022-11-25T00:31:12.358Z,3.43
2022-11-25T00:33:39.870Z,2.87
2022-11-25T00:36:13.794Z,2.70
2022-11-25T00:38:40.571Z,2.40
2022-11-25T00:41:25.729Z,3.30
2022-11-25T00:44:11.110Z,3.03
2022-11-25T00:46:37.958Z,2.83
2022-11-25T00:49:04.765Z,2.70
2022-11-25T00:51:31.532Z,3.43
2022-11-25T00:53:59.262Z,2.57
2022-11-25T00:56:26.828Z,2.43
2022-11-25T00:58:54.197Z,3.07
2022-11-25T01:01:21.254Z,3.03
2022-11-25T01:03:53.856Z,2.90
2022-11-25T01:06:22.167Z,2.83
2022-11-25T01:08:49.610Z,2.17
2022-11-25T01:11:19.616Z,3.00
2022-11-25T01:13:46.464Z,3.33
2022-11-25T01:16:16.409Z,2.70
2022-11-25T01:18:43.685Z,3.10
2022-11-25T01:21:22.229Z,2.53
2022-11-25T01:23:49.348Z,2.80
2022-11-25T01:26:22.210Z,2.20
2022-11-25T01:28:52.849Z,2.63
2022-11-25T01:31:22.062Z,2.30
2022-11-25T01:33:54.424Z,2.73
2022-11-25T01:36:21.502Z,2.40
2022-11-25T01:38:55.277Z,2.70
2022-11-25T01:41:24.245Z,2.60
2022-11-25T01:44:14.066Z,2.23
2022-11-25T01:47:03.231Z,2.80
2022-11-25T01:49:32.511Z,2.27
2022-11-25T01:52:16.795Z,2.83
2022-11-25T01:55:02.718Z,2.70
2022-11-25T01:57:51.870Z,2.77
2022-11-25T02:00:19.101Z,2.97
2022-11-25T02:02:47.639Z,2.43
2022-11-25T02:05:18.578Z,2.97
2022-11-25T02:07:48.543Z,3.07
2022-11-25T02:10:19.890Z,3.07
2022-11-25T02:12:47.424Z,2.33
2022-11-25T02:15:15.644Z,3.63
2022-11-25T02:17:45.739Z,2.90
2022-11-25T02:20:15.541Z,2.77
2022-11-25T02:22:54.334Z,2.70
2022-11-25T02:25:26.878Z,2.63
2022-11-25T02:28:15.746Z,2.90
2022-11-25T02:30:43.509Z,2.40
2022-11-25T02:33:11.354Z,2.50
2022-11-25T02:35:48.538Z,2.30
2022-11-25T02:38:20.426Z,2.40
2022-11-25T02:41:16.576Z,2.57
2022-11-25T02:43:43.371Z,2.73
2022-11-25T02:46:21.617Z,2.70
2022-11-25T02:51:35.859Z,2.63
2022-11-25T02:54:02.636Z,2.30
2022-11-25T02:56:32.245Z,3.10
2022-11-25T02:58:59.252Z,2.70
2022-11-25T03:01:26.595Z,2.50
2022-11-25T03:03:53.580Z,2.00
2022-11-25T03:06:20.444Z,2.07
2022-11-25T03:08:47.381Z,2.17
2022-11-25T03:11:14.160Z,2.63
2022-11-25T03:13:40.949Z,2.00
2022-11-25T03:16:08.083Z,2.23
2022-11-25T03:18:35.539Z,2.63
2022-11-25T03:21:02.502Z,2.23
2022-11-25T03:23:29.354Z,2.50
2022-11-25T03:25:56.333Z,2.97
2022-11-25T03:28:23.346Z,3.20
2022-11-25T03:30:50.173Z,2.83
2022-11-25T03:33:17.198Z,2.83
2022-11-25T03:35:43.996Z,3.20
2022-11-25T03:38:10.730Z,3.00
2022-11-25T03:40:37.479Z,2.60
2022-11-25T03:43:04.835Z,3.10
2022-11-25T03:45:31.655Z,2.93
2022-11-25T03:47:58.461Z,3.03
2022-11-25T03:50:25.362Z,3.27
2022-11-25T03:52:52.384Z,3.00
2022-11-25T03:55:20.340Z,3.03
2022-11-25T03:57:47.157Z,2.97
2022-11-25T04:00:14.195Z,3.10
2022-11-25T04:02:41.065Z,2.97
2022-11-25T04:05:08.196Z,3.20
2022-11-25T04:07:35.045Z,3.27
2022-11-25T04:10:01.845Z,2.60
2022-11-25T04:12:46.873Z,2.70
2022-11-25T04:15:15.849Z,3.47
2022-11-25T04:17:43.003Z,2.87
2022-11-25T04:20:10.770Z,2.87
2022-11-25T04:22:37.533Z,3.23
2022-11-25T04:25:05.285Z,2.70
2022-11-25T04:27:32.086Z,3.00
2022-11-25T04:29:58.892Z,2.80
2022-11-25T04:32:25.867Z,2.90
2022-11-25T04:34:52.749Z,3.70
2022-11-25T04:37:19.618Z,2.80
2022-11-25T04:39:46.359Z,2.70
2022-11-25T04:42:31.592Z,3.40
2022-11-25T04:45:21.566Z,2.67
2022-11-25T04:47:46.526Z,2.80
2022-11-25T04:50:19.802Z,2.70
2022-11-25T04:52:46.572Z,2.10
2022-11-25T04:55:13.420Z,2.37
2022-11-25T04:57:40.423Z,2.07
2022-11-25T05:00:09.495Z,2.10
2022-11-25T05:02:36.418Z,2.53
2022-11-25T05:05:03.355Z,2.03
2022-11-25T05:07:30.227Z,2.07
2022-11-25T05:09:57.123Z,2.30
2022-11-25T05:12:26.571Z,3.00
2022-11-25T05:14:53.670Z,2.57
2022-11-25T05:17:23.056Z,2.27
2022-11-25T05:19:50.506Z,2.60
2022-11-25T05:22:23.679Z,2.77
2022-11-25T05:24:50.586Z,2.50
2022-11-25T05:27:18.305Z,2.50
2022-11-25T05:29:45.691Z,2.87
2022-11-25T05:32:12.799Z,3.10
2022-11-25T05:34:40.032Z,2.10
2022-11-25T05:37:07.695Z,2.30
2022-11-25T05:39:34.739Z,2.30
2022-11-25T05:42:01.836Z,2.50
2022-11-25T05:44:28.600Z,2.53
2022-11-25T05:46:55.401Z,3.20
2022-11-25T05:49:22.429Z,2.37
2022-11-25T05:51:49.467Z,2.57
2022-11-25T05:54:16.281Z,2.73
2022-11-25T05:56:43.095Z,2.80
2022-11-25T05:59:09.970Z,2.10
2022-11-25T06:01:36.825Z,2.27
2022-11-25T06:04:05.191Z,2.37
2022-11-25T06:06:32.310Z,2.53
2022-11-25T06:08:59.812Z,2.40
2022-11-25T06:11:26.740Z,2.43
2022-11-25T06:13:55.712Z,3.07
2022-11-25T06:16:23.872Z,3.27
2022-11-25T06:18:50.806Z,2.93
2022-11-25T06:21:18.329Z,2.43
2022-11-25T06:23:46.079Z,2.90
2022-11-25T06:26:17.248Z,2.97
2022-11-25T06:28:44.455Z,2.73
2022-11-25T06:31:20.320Z,2.73
2022-11-25T06:33:51.524Z,5.70
2022-11-25T06:36:20.281Z,4.00
2022-11-25T06:38:52.561Z,3.87
2022-11-25T06:41:20.490Z,3.87
2022-11-25T06:43:47.297Z,2.93
2022-11-25T06:46:21.134Z,3.03
2022-11-25T06:48:51.196Z,2.60
2022-11-25T06:51:18.138Z,3.10
2022-11-25T06:53:45.881Z,3.03
2022-11-25T06:56:19.147Z,2.70
2022-11-25T06:58:47.865Z,2.97
2022-11-25T07:01:27.281Z,3.30
2022-11-25T07:04:00.112Z,2.50
2022-11-25T07:06:27.066Z,2.80
2022-11-25T07:08:53.829Z,2.77
2022-11-25T07:11:27.234Z,2.50
2022-11-25T07:13:57.197Z,2.40
2022-11-25T07:16:24.132Z,2.47
2022-11-25T07:18:51.413Z,2.90
2022-11-25T07:21:27.047Z,2.20
2022-11-25T07:23:53.916Z,2.53
2022-11-25T07:26:23.208Z,2.70
2022-11-25T07:28:51.730Z,2.83
2022-11-25T07:31:25.096Z,2.67
2022-11-25T07:34:05.953Z,3.27
2022-11-25T07:36:34.365Z,2.30
2022-11-25T07:39:04.073Z,3.17
2022-11-25T07:41:31.006Z,2.60
2022-11-25T07:44:01.218Z,2.10
2022-11-25T07:46:33.484Z,2.30
2022-11-25T07:49:02.759Z,2.37
2022-11-25T07:51:35.423Z,2.50
2022-11-25T07:54:04.157Z,2.50
2022-11-25T07:56:31.170Z,2.97
2022-11-25T07:58:58.152Z,2.27
2022-11-25T08:01:25.434Z,2.90
2022-11-25T08:03:53.136Z,2.77
2022-11-25T08:06:23.191Z,3.23
2022-11-25T08:08:50.881Z,2.27
2022-11-25T08:11:20.883Z,2.57
2022-11-25T08:13:48.366Z,3.30
2022-11-25T08:16:17.631Z,2.67
2022-11-25T08:18:44.855Z,2.77
2022-11-25T08:21:14.434Z,2.43
2022-11-25T08:23:44.000Z,2.50
2022-11-25T08:26:13.682Z,3.47
2022-11-25T08:28:41.672Z,2.80
2022-11-25T08:31:28.990Z,3.20
2022-11-25T08:33:57.199Z,2.30
2022-11-25T08:36:24.551Z,2.93
2022-11-25T08:38:54.685Z,2.30
2022-11-25T08:41:24.808Z,2.80
2022-11-25T08:43:52.087Z,2.90
2022-11-25T08:46:22.559Z,3.27
2022-11-25T08:48:49.848Z,2.90
2022-11-25T08:51:20.288Z,2.90
2022-11-25T08:53:51.243Z,3.50
2022-11-25T08:56:25.529Z,3.30
2022-11-25T08:58:53.836Z,3.47
2022-11-25T09:01:22.300Z,3.10
2022-11-25T09:03:51.485Z,3.13
2022-11-25T09:06:20.046Z,3.60
2022-11-25T09:08:48.085Z,4.03
2022-11-25T09:11:15.752Z,3.93
2022-11-25T09:13:42.884Z,3.57
2022-11-25T09:16:10.188Z,3.60
2022-11-25T09:18:37.714Z,3.60
2022-11-25T09:21:12.233Z,3.40
2022-11-25T09:23:39.982Z,4.17
2022-11-25T09:26:08.185Z,4.77
2022-11-25T09:28:36.635Z,4.13
2022-11-25T09:31:10.076Z,3.87
2022-11-25T09:33:37.798Z,4.00
2022-11-25T09:36:06.218Z,4.27
2022-11-25T09:38:34.150Z,4.40
2022-11-25T09:41:06.497Z,4.23
2022-11-25T09:43:55.162Z,4.10
2022-11-25T09:46:43.140Z,3.90
2022-11-25T09:49:40.896Z,4.10
2022-11-25T09:52:26.676Z,3.63
2022-11-25T09:55:19.642Z,4.20
2022-11-25T09:58:14.064Z,3.73
2022-11-25T10:00:47.292Z,4.03
2022-11-25T10:03:38.109Z,3.80
2022-11-25T10:06:19.265Z,3.80
2022-11-25T10:08:50.679Z,3.40
2022-11-25T10:11:17.362Z,4.43
2022-11-25T10:13:59.912Z,3.70
2022-11-25T10:16:38.682Z,3.43
2022-11-25T10:19:05.754Z,3.80
2022-11-25T10:21:32.845Z,4.00
2022-11-25T10:23:59.711Z,4.17
2022-11-25T10:26:35.735Z,4.00
2022-11-25T10:29:14.739Z,3.67
2022-11-25T10:31:44.801Z,3.80
2022-11-25T10:34:35.433Z,3.57
2022-11-25T10:37:10.942Z,3.43
2022-11-25T10:39:37.863Z,3.70
2022-11-25T10:42:18.697Z,3.57
2022-11-25T10:44:45.774Z,3.10
2022-11-25T10:47:44.086Z,3.40
2022-11-25T10:50:27.430Z,3.67
2022-11-25T10:53:11.118Z,3.90
2022-11-25T10:55:38.014Z,4.10
2022-11-25T10:58:29.721Z,4.37
2022-11-25T11:01:06.393Z,4.33
2022-11-25T11:03:33.852Z,4.07
2022-11-25T11:06:00.909Z,4.60
2022-11-25T11:08:41.219Z,3.57
2022-11-25T11:11:17.168Z,4.37
2022-11-25T11:13:45.163Z,4.23
2022-11-25T11:16:37.512Z,4.17
2022-11-25T11:19:05.282Z,4.20
2022-11-25T11:21:37.877Z,3.90
2022-11-25T11:24:23.276Z,4.10
2022-11-25T11:27:03.884Z,3.77
2022-11-25T11:29:30.835Z,3.97
2022-11-25T11:32:04.653Z,4.03
2022-11-25T11:34:48.185Z,4.40
2022-11-25T11:37:41.532Z,4.30
2022-11-25T11:40:47.237Z,4.17
2022-11-25T11:43:32.318Z,3.97
2022-11-25T11:46:13.055Z,4.43
2022-11-25T11:48:55.028Z,4.67
2022-11-25T11:51:47.184Z,4.70
2022-11-25T11:54:24.442Z,4.53
2022-11-25T11:56:59.836Z,5.60
2022-11-25T11:59:39.237Z,4.43
2022-11-25T12:02:27.164Z,4.23
2022-11-25T12:05:12.559Z,4.70
2022-11-25T12:07:39.368Z,7.07
2022-11-25T12:10:14.805Z,5.13
2022-11-25T12:13:19.746Z,5.40
2022-11-25T12:16:17.538Z,4.90
2022-11-25T12:19:06.303Z,5.43
2022-11-25T12:21:41.602Z,4.93
2022-11-25T12:24:21.698Z,6.23
2022-11-25T12:27:11.117Z,6.60
2022-11-25T12:30:04.100Z,6.30
2022-11-25T12:32:55.766Z,6.07
2022-11-25T12:35:43.457Z,6.40
2022-11-25T12:38:42.938Z,6.73
2022-11-25T12:41:24.866Z,7.17
2022-11-25T12:44:04.835Z,6.87
2022-11-25T12:46:31.568Z,6.63
2022-11-25T12:48:59.644Z,7.50
2022-11-25T12:51:48.576Z,7.67
2022-11-25T12:54:53.089Z,7.60
2022-11-25T12:57:32.785Z,7.00
2022-11-25T13:00:40.979Z,7.83
2022-11-25T13:03:18.368Z,7.90
2022-11-25T13:06:23.707Z,9.57
2022-11-25T13:09:00.265Z,8.20
2022-11-25T13:11:58.300Z,7.40
2022-11-25T13:15:02.393Z,7.03
2022-11-25T13:17:32.574Z,6.37
2022-11-25T13:20:27.159Z,7.00
2022-11-25T13:23:07.981Z,7.17
2022-11-25T13:25:36.230Z,7.27
2022-11-25T13:28:05.728Z,7.50
2022-11-25T13:30:32.560Z,7.10
2022-11-25T13:33:25.628Z,6.87
2022-11-25T13:35:56.666Z,6.70
2022-11-25T13:38:51.123Z,6.73
2022-11-25T13:41:34.197Z,6.33
2022-11-25T13:44:04.009Z,6.97
2022-11-25T13:46:42.513Z,6.80
2022-11-25T13:49:32.949Z,6.47
2022-11-25T13:52:11.071Z,6.70
2022-11-25T13:54:53.662Z,6.50
2022-11-25T13:57:29.435Z,5.50
2022-11-25T13:59:59.527Z,6.10
2022-11-25T14:02:30.997Z,6.00
2022-11-25T14:05:13.192Z,6.07
2022-11-25T14:08:07.844Z,5.60
2022-11-25T14:10:37.665Z,6.50
2022-11-25T14:13:07.152Z,5.67
2022-11-25T14:15:52.061Z,5.57
2022-11-25T14:21:59.316Z,5.20
2022-11-25T14:24:40.636Z,5.10
2022-11-25T14:27:19.577Z,4.70
2022-11-25T14:29:49.097Z,4.37
2022-11-25T14:32:20.823Z,5.07
2022-11-25T14:35:04.159Z,5.23
2022-11-25T14:37:44.798Z,4.63
2022-11-25T14:40:44.228Z,4.80
2022-11-25T14:43:25.663Z,4.40
2022-11-25T14:46:25.863Z,4.67
2022-11-25T14:48:58.413Z,5.03
2022-11-25T14:51:28.143Z,4.90
2022-11-25T14:53:55.150Z,4.87
2022-11-25T14:56:29.024Z,4.20
2022-11-25T14:58:58.748Z,5.50
2022-11-25T15:01:34.096Z,4.70
2022-11-25T15:04:22.561Z,5.57
2022-11-25T15:06:57.885Z,4.43
2022-11-25T15:09:37.631Z,4.90
2022-11-25T15:12:12.002Z,4.80
2022-11-25T15:14:42.040Z,5.63
2022-11-25T15:17:25.840Z,5.43
2022-11-25T15:19:54.325Z,4.97
2022-11-25T15:22:24.035Z,5.30
2022-11-25T15:24:56.066Z,5.40
2022-11-25T15:27:28.887Z,5.60
2022-11-25T15:29:57.081Z,5.20
2022-11-25T15:32:29.969Z,5.47
2022-11-25T15:35:00.313Z,5.40
2022-11-25T15:37:28.280Z,5.13
2022-11-25T15:40:33.774Z,5.67
2022-11-25T15:43:03.178Z,5.37
2022-11-25T15:45:43.612Z,5.90
2022-11-25T15:48:26.998Z,5.87
2022-11-25T15:51:03.293Z,6.60
2022-11-25T15:53:36.790Z,5.70
2022-11-25T15:56:06.602Z,6.10
2022-11-25T15:58:33.626Z,6.50
2022-11-25T16:01:05.212Z,6.13
2022-11-25T16:03:32.672Z,5.70
2022-11-25T16:06:01.334Z,6.70
2022-11-25T16:08:37.431Z,6.57
2022-11-25T16:11:17.156Z,6.17
2022-11-25T16:13:44.504Z,6.40
2022-11-25T16:16:19.797Z,10.33
2022-11-25T16:19:01.689Z,6.10
2022-11-25T16:21:38.775Z,5.90
2022-11-25T16:24:05.519Z,6.00
2022-11-25T16:26:49.140Z,6.03
2022-11-25T16:29:25.545Z,5.87
2022-11-25T16:31:52.408Z,6.67
2022-11-25T16:34:21.080Z,6.60
2022-11-25T16:36:48.048Z,6.93
2022-11-25T16:39:14.920Z,7.00
2022-11-25T16:41:42.872Z,7.33
2022-11-25T16:44:19.247Z,7.07
2022-11-25T16:46:46.083Z,7.23
2022-11-25T16:49:18.583Z,6.87
2022-11-25T16:51:45.704Z,7.57
2022-11-25T16:54:12.779Z,8.40
2022-11-25T16:56:41.995Z,7.87
2022-11-25T16:59:36.729Z,10.40
2022-11-25T17:02:05.587Z,8.97
2022-11-25T17:04:32.454Z,8.63
2022-11-25T17:09:46.806Z,8.73
2022-11-25T17:12:22.725Z,7.93
2022-11-25T17:14:49.690Z,11.70
2022-11-25T17:17:24.385Z,10.20
2022-11-25T17:19:52.519Z,10.20
2022-11-25T17:22:27.791Z,10.00
2022-11-25T17:24:54.931Z,8.13
2022-11-25T17:27:29.780Z,10.03
2022-11-25T17:29:58.182Z,10.33
2022-11-25T17:32:26.013Z,12.30
2022-11-25T17:34:52.958Z,10.97
2022-11-25T17:37:25.707Z,11.63
2022-11-25T17:39:53.782Z,10.57
2022-11-25T17:42:29.613Z,9.30
2022-11-25T17:44:56.796Z,9.97
2022-11-25T17:47:23.827Z,10.73
2022-11-25T17:49:52.440Z,10.07
2022-11-25T17:52:19.422Z,10.40
2022-11-25T17:54:46.261Z,9.77
2022-11-25T17:57:19.795Z,11.73
2022-11-25T17:59:46.661Z,18.13
2022-11-25T18:02:21.744Z,11.33
2022-11-25T18:04:49.101Z,10.83
2022-11-25T18:07:16.101Z,10.17
2022-11-25T18:09:44.326Z,15.80
2022-11-25T18:12:27.995Z,9.43
2022-11-25T18:14:55.829Z,10.17
2022-11-25T18:17:22.730Z,10.73
2022-11-25T18:19:54.555Z,9.33
2022-11-25T18:22:24.030Z,9.20
2022-11-25T18:24:51.928Z,10.83
2022-11-25T18:27:21.777Z,9.67
2022-11-25T18:29:48.714Z,8.43
2022-11-25T18:32:15.467Z,9.87
2022-11-25T18:34:42.298Z,9.50
2022-11-25T18:37:11.820Z,9.20
2022-11-25T18:39:38.980Z,7.90
2022-11-25T18:42:06.959Z,9.00
2022-11-25T18:44:38.034Z,8.93
2022-11-25T18:47:06.041Z,11.07
2022-11-25T18:49:32.853Z,12.50
2022-11-25T18:51:59.716Z,8.80
2022-11-25T18:54:26.581Z,9.40
2022-11-25T18:56:53.752Z,7.27
2022-11-25T18:59:28.930Z,8.17
2022-11-25T19:01:56.078Z,9.87
2022-11-25T19:04:23.228Z,8.57
2022-11-25T19:06:49.991Z,8.83
2022-11-25T19:09:16.874Z,9.43
2022-11-25T19:11:53.356Z,14.27
2022-11-25T19:14:30.393Z,7.53
2022-11-25T19:17:01.831Z,7.57
2022-11-25T19:19:29.191Z,8.23
2022-11-25T19:21:56.039Z,8.53
2022-11-25T19:24:22.841Z,9.97
2022-11-25T19:26:52.931Z,9.13
2022-11-25T19:29:23.717Z,9.87
2022-11-25T19:31:54.050Z,9.27
2022-11-25T19:34:30.864Z,10.80
2022-11-25T19:36:57.667Z,10.57
2022-11-25T19:39:24.422Z,11.00
2022-11-25T19:41:51.308Z,12.77
2022-11-25T19:44:19.045Z,13.10
2022-11-25T19:47:13.815Z,11.47
2022-11-25T19:49:35.124Z,12.03
2022-11-25T19:52:01.865Z,9.83
2022-11-25T19:54:29.676Z,11.03
2022-11-25T19:56:56.430Z,8.80
2022-11-25T19:59:23.236Z,9.33
2022-11-25T20:01:50.304Z,8.57
2022-11-25T20:04:20.796Z,8.63
2022-11-25T20:06:48.955Z,8.33
2022-11-25T20:09:15.909Z,11.00
2022-11-25T20:11:43.424Z,9.23
2022-11-25T20:14:10.215Z,9.87
2022-11-25T20:16:40.479Z,10.77
2022-11-25T20:19:12.837Z,9.00
2022-11-25T20:21:40.857Z,9.07
2022-11-25T20:24:15.860Z,9.70
2022-11-25T20:26:48.408Z,8.87
2022-11-25T20:29:18.841Z,10.00
2022-11-25T20:31:46.460Z,10.30
2022-11-25T20:34:13.361Z,10.73
2022-11-25T20:36:41.939Z,10.60
2022-11-25T20:39:16.892Z,11.70
2022-11-25T20:41:46.688Z,11.63
2022-11-25T20:44:14.065Z,10.70
2022-11-25T20:46:40.890Z,11.07
2022-11-25T20:49:38.010Z,11.17
2022-11-25T20:52:05.434Z,11.30
2022-11-25T20:54:35.852Z,10.93
2022-11-25T20:57:03.072Z,11.40
2022-11-25T20:59:31.099Z,11.40
2022-11-25T21:01:58.007Z,12.00
2022-11-25T21:04:24.845Z,11.47
2022-11-25T21:06:52.037Z,10.47
2022-11-25T21:09:23.255Z,12.23
2022-11-25T21:11:50.201Z,11.37
2022-11-25T21:14:18.871Z,11.03
2022-11-25T21:16:46.723Z,10.13
2022-11-25T21:19:13.850Z,11.47
2022-11-25T21:21:43.885Z,12.03
2022-11-25T21:24:24.335Z,13.00
2022-11-25T21:26:51.770Z,12.60
2022-11-25T21:29:19.116Z,11.33
2022-11-25T21:31:46.038Z,14.27
2022-11-25T21:34:14.326Z,15.17
2022-11-25T21:36:43.330Z,15.73
2022-11-25T21:39:13.575Z,13.73
2022-11-25T21:41:40.601Z,14.57
2022-11-25T21:44:08.128Z,15.40
2022-11-25T21:46:35.040Z,14.27
2022-11-25T21:49:01.912Z,14.73
2022-11-25T21:51:28.662Z,14.73
2022-11-25T21:53:55.977Z,15.53
2022-11-25T21:56:28.108Z,15.97
2022-11-25T21:58:55.889Z,16.57
2022-11-25T22:01:23.783Z,16.40
2022-11-25T22:03:51.293Z,16.47
2022-11-25T22:06:25.227Z,16.03
2022-11-25T22:08:52.335Z,16.57
2022-11-25T22:11:25.916Z,15.53
2022-11-25T22:13:52.963Z,18.00
2022-11-25T22:16:27.834Z,17.47
2022-11-25T22:18:54.815Z,16.90
2022-11-25T22:21:21.588Z,17.73
2022-11-25T22:23:48.504Z,17.10
2022-11-25T22:26:32.837Z,17.50
2022-11-25T22:29:01.003Z,19.50
2022-11-25T22:31:28.236Z,18.23
2022-11-25T22:33:55.613Z,17.53
2022-11-25T22:36:37.556Z,18.43
2022-11-25T22:39:25.186Z,17.90
2022-11-25T22:41:55.193Z,18.93
2022-11-25T22:44:27.669Z,19.30
2022-11-25T22:46:54.617Z,19.27
2022-11-25T22:49:33.418Z,18.63
2022-11-25T22:52:00.534Z,18.00
2022-11-25T22:54:27.551Z,18.93
2022-11-25T22:56:55.142Z,20.00
2022-11-25T22:59:21.968Z,19.70
2022-11-25T23:01:49.015Z,18.33
2022-11-25T23:04:20.264Z,17.67
2022-11-25T23:06:47.644Z,18.80
2022-11-25T23:09:17.970Z,18.63
2022-11-25T23:11:46.145Z,18.03
2022-11-25T23:14:13.194Z,17.77
2022-11-25T23:16:41.963Z,18.67
2022-11-25T23:19:18.615Z,19.20
2022-11-25T23:21:45.742Z,19.33
2022-11-25T23:24:15.336Z,19.03
2022-11-25T23:26:43.217Z,18.33
2022-11-25T23:29:10.102Z,19.03
2022-11-25T23:31:38.357Z,18.30
2022-11-25T23:34:06.872Z,17.57
2022-11-25T23:36:46.554Z,17.77
2022-11-25T23:39:22.087Z,19.23
2022-11-25T23:41:49.439Z,17.37
2022-11-25T23:44:27.909Z,18.40
2022-11-25T23:46:59.458Z,19.13
2022-11-25T23:49:37.389Z,18.83
2022-11-25T23:52:08.068Z,17.77
2022-11-25T23:54:45.332Z,19.23
2022-11-25T23:57:38.321Z,18.73
